Time;durP1;ratioP1;P1;durP2;ratioP2;P2;SDS_P1;SDS_P2;PMS_P1;PMS_P2;Temp;Humidity;BMP_temperature;BMP_pressure;BME280_temperature;BME280_humidity;BME280_pressure;Samples;Min_cycle;Max_cycle;Signal;HPM_P1;HPM_P2
2021/05/21 00:01:30;;;;;;;0.80;0.70;;;14.30;83.50;;;14.84;100.00;-21085.13;5133982;27;20507;-74
2021/05/21 00:03:59;;;;;;;0.80;0.70;;;14.30;83.70;;;14.93;100.00;-21087.59;5131877;27;21034;-73
2021/05/21 00:06:28;;;;;;;0.80;0.70;;;14.30;82.70;;;14.90;100.00;-21086.63;5132613;27;20433;-73
2021/05/21 00:08:56;;;;;;;0.70;0.60;;;14.30;83.50;;;14.88;100.00;-21086.06;5121378;27;20797;-73
2021/05/21 00:11:24;;;;;;;0.70;0.70;;;14.30;83.40;;;14.91;100.00;-21086.91;5123607;28;20450;-74
2021/05/21 00:13:52;;;;;;;0.70;0.70;;;14.30;81.80;;;14.86;100.00;-21085.66;5134154;28;20530;-75
2021/05/21 00:16:19;;;;;;;0.70;0.60;;;14.30;80.40;;;14.92;100.00;-21087.19;5134011;28;20416;-74
2021/05/21 00:18:47;;;;;;;0.70;0.60;;;14.30;81.10;;;14.87;100.00;-21085.78;5131703;27;20499;-74
2021/05/21 00:21:16;;;;;;;0.70;0.60;;;14.30;80.60;;;14.91;100.00;-21086.91;5132446;28;20443;-73
2021/05/21 00:23:44;;;;;;;0.80;0.70;;;14.30;82.30;;;14.98;100.00;-21088.81;5115099;28;20462;-75
2021/05/21 00:26:11;;;;;;;0.70;0.60;;;14.20;84.00;;;14.79;100.00;-21083.72;5115253;28;20478;-73
2021/05/21 00:28:39;;;;;;;0.70;0.70;;;14.20;83.60;;;14.71;100.00;-21081.66;5127571;27;20452;-73
2021/05/21 00:31:07;;;;;;;0.70;0.70;;;14.10;85.40;;;14.68;100.00;-21080.72;5137283;27;20503;-74
2021/05/21 00:33:35;;;;;;;0.70;0.70;;;14.10;88.20;;;14.58;100.00;-21077.94;5137593;27;20954;-73
2021/05/21 00:36:03;;;;;;;0.70;0.70;;;14.10;87.80;;;14.62;100.00;-21079.06;5134159;27;20584;-74
2021/05/21 00:38:32;;;;;;;0.70;0.70;;;14.00;90.10;;;14.63;100.00;-21079.47;5132047;27;20780;-74
2021/05/21 00:41:01;;;;;;;0.70;0.60;;;14.00;89.10;;;14.54;100.00;-21076.84;5115548;27;20810;-74
2021/05/21 00:43:29;;;;;;;0.77;0.70;;;14.00;90.20;;;14.55;100.00;-21077.13;5132535;27;20410;-74
2021/05/21 00:45:56;;;;;;;0.70;0.70;;;14.00;91.40;;;14.52;100.00;-21076.31;5116401;28;20425;-74
2021/05/21 00:48:25;;;;;;;0.70;0.60;;;13.90;92.10;;;14.62;100.00;-21079.06;5132470;27;20964;-74
2021/05/21 00:50:53;;;;;;;0.70;0.60;;;13.90;92.10;;;14.62;100.00;-21079.06;5115831;27;20971;-73
2021/05/21 00:53:23;;;;;;;0.70;0.60;;;13.90;90.80;;;14.70;100.00;-21081.41;5136859;27;21038;-74
2021/05/21 00:55:59;;;;;;;0.70;0.60;;;14.10;88.80;;;14.78;100.00;-21083.31;5136906;27;20825;-74
2021/05/21 00:58:27;;;;;;;0.80;0.70;;;14.10;88.00;;;14.63;100.00;-21079.34;5135938;27;20421;-75
2021/05/21 01:00:56;;;;;;;0.70;0.60;;;14.10;88.80;;;14.76;100.00;-21082.91;5118319;27;20435;-74
2021/05/21 01:03:24;;;;;;;0.80;0.70;;;14.10;89.40;;;14.74;100.00;-21082.50;5118693;27;20445;-74
2021/05/21 01:05:52;;;;;;;0.70;0.70;;;14.10;87.20;;;14.74;100.00;-21082.50;5136667;27;20412;-73
2021/05/21 01:08:21;;;;;;;0.80;0.80;;;14.10;86.60;;;14.76;100.00;-21082.78;5133452;27;20469;-74
2021/05/21 01:11:06;;;;;;;0.80;0.80;;;14.10;86.70;;;14.67;100.00;-21080.44;5137644;27;20405;-73
2021/05/21 01:13:34;;;;;;;0.70;0.63;;;14.10;86.00;;;14.72;100.00;-21081.94;5118264;27;20460;-73
2021/05/21 01:16:02;;;;;;;0.70;0.63;;;14.10;86.30;;;14.63;100.00;-21079.47;5137145;27;20405;-75
2021/05/21 01:18:31;;;;;;;0.70;0.67;;;14.10;85.40;;;14.62;100.00;-21079.06;5135128;27;20974;-73
2021/05/21 01:21:00;;;;;;;0.70;0.60;;;14.10;86.10;;;14.63;100.00;-21079.34;5134927;27;20427;-74
2021/05/21 01:23:29;;;;;;;0.70;0.60;;;14.00;86.60;;;14.53;100.00;-21076.56;5117870;27;20446;-72
2021/05/21 01:25:56;;;;;;;0.80;0.70;;;14.00;87.60;;;14.62;100.00;-21079.06;5135586;27;20445;-72
2021/05/21 01:28:24;;;;;;;0.70;0.60;;;14.00;87.90;;;14.58;100.00;-21077.94;5141966;27;20806;-74
2021/05/21 01:30:52;;;;;;;0.80;0.70;;;14.00;87.40;;;14.57;100.00;-21077.69;5135124;27;20446;-73
2021/05/21 01:33:21;;;;;;;0.70;0.60;;;14.00;89.50;;;14.57;100.00;-21077.69;5135150;27;20447;-75
2021/05/21 01:35:50;;;;;;;0.70;0.60;;;13.90;88.30;;;14.54;100.00;-21076.84;5132274;27;20436;-74
2021/05/21 01:38:19;;;;;;;0.80;0.70;;;13.90;88.90;;;14.54;100.00;-21077.00;5122607;27;20514;-77
2021/05/21 01:40:48;;;;;;;0.70;0.70;;;14.00;88.10;;;14.48;100.00;-21075.47;5123737;27;20505;-75
2021/05/21 01:43:16;;;;;;;0.73;0.70;;;14.00;88.40;;;14.47;100.00;-21075.19;5134817;27;20428;-73
2021/05/21 01:45:44;;;;;;;0.70;0.60;;;13.90;89.00;;;14.40;100.00;-21073.28;5117996;27;20912;-74
2021/05/21 01:48:12;;;;;;;0.70;0.60;;;13.90;90.10;;;14.46;100.00;-21074.91;5129871;27;20919;-72
2021/05/21 01:50:40;;;;;;;0.70;0.70;;;13.80;90.70;;;14.43;100.00;-21074.09;5133217;27;20532;-73
2021/05/21 01:53:10;;;;;;;0.70;0.60;;;13.80;90.90;;;14.36;100.00;-21072.16;5135351;27;20966;-73
2021/05/21 01:55:39;;;;;;;0.73;0.70;;;13.80;91.20;;;14.33;100.00;-21071.34;5117400;27;21029;-73
2021/05/21 01:58:07;;;;;;;0.70;0.70;;;13.80;91.20;;;14.43;100.00;-21074.09;5120199;27;20478;-74
2021/05/21 02:00:35;;;;;;;0.70;0.70;;;13.70;92.00;;;14.42;100.00;-21073.81;5096772;28;20448;-75
2021/05/21 02:03:02;;;;;;;0.70;0.60;;;13.70;92.00;;;14.35;100.00;-21071.75;5097568;28;20442;-74
2021/05/21 02:05:30;;;;;;;0.70;0.60;;;13.80;92.30;;;14.41;100.00;-21073.53;5115263;28;20414;-73
2021/05/21 02:07:58;;;;;;;0.70;0.70;;;13.80;91.80;;;14.32;100.00;-21071.06;5118732;27;20452;-74
2021/05/21 02:10:27;;;;;;;0.80;0.70;;;13.80;92.30;;;14.46;100.00;-21074.78;5133984;27;20512;-74
2021/05/21 02:12:55;;;;;;;0.70;0.60;;;13.80;92.30;;;14.38;100.00;-21072.59;5133699;27;21005;-74
2021/05/21 02:15:23;;;;;;;0.80;0.70;;;13.70;92.80;;;14.34;100.00;-21071.63;5134431;27;20469;-72
2021/05/21 02:17:51;;;;;;;0.70;0.60;;;13.70;92.80;;;14.32;100.00;-21071.06;5127639;27;20509;-75
2021/05/21 02:20:19;;;;;;;0.80;0.70;;;13.70;93.00;;;14.29;100.00;-21070.25;5115215;28;20425;-74
2021/05/21 02:22:47;;;;;;;0.77;0.70;;;13.70;93.70;;;14.25;100.00;-21069.16;5130557;27;20479;-74
2021/05/21 02:25:16;;;;;;;0.70;0.70;;;13.60;94.00;;;14.30;100.00;-21070.38;5132501;27;20443;-73
2021/05/21 02:27:43;;;;;;;0.80;0.80;;;13.70;93.70;;;14.28;100.00;-21069.97;5131258;27;20493;-73
2021/05/21 02:30:13;;;;;;;0.70;0.60;;;13.70;94.30;;;14.23;100.00;-21068.59;5149529;27;20468;-73
2021/05/21 02:32:40;;;;;;;0.70;0.70;;;13.70;93.30;;;14.34;100.00;-21071.47;5133594;27;20440;-73
2021/05/21 02:35:10;;;;;;;0.80;0.70;;;13.70;93.70;;;14.32;100.00;-21071.06;5135069;27;20466;-73
2021/05/21 02:37:37;;;;;;;0.80;0.70;;;13.70;93.30;;;14.33;100.00;-21071.34;5133768;27;20428;-74
2021/05/21 02:40:09;;;;;;;0.70;0.70;;;13.70;93.10;;;14.33;100.00;-21071.34;5117757;27;20432;-73
2021/05/21 02:42:37;;;;;;;0.77;0.70;;;13.70;93.70;;;14.27;100.00;-21069.81;5113512;28;20444;-73
2021/05/21 02:45:06;;;;;;;0.77;0.70;;;13.70;93.80;;;14.33;100.00;-21071.34;5096313;28;20482;-72
2021/05/21 02:47:35;;;;;;;0.70;0.60;;;13.70;93.40;;;14.37;100.00;-21072.44;5113997;28;20418;-73
2021/05/21 02:50:06;;;;;;;0.70;0.60;;;13.70;93.50;;;14.38;100.00;-21072.72;5113045;28;20471;-76
2021/05/21 02:52:33;;;;;;;0.70;0.60;;;13.70;93.30;;;14.21;100.00;-21068.19;5112421;28;20428;-73
2021/05/21 02:55:01;;;;;;;0.70;0.60;;;13.70;93.90;;;14.37;100.00;-21072.44;5121968;27;20557;-73
2021/05/21 02:57:28;;;;;;;0.70;0.70;;;13.70;93.50;;;14.33;100.00;-21071.34;5127945;27;20478;-72
2021/05/21 02:59:56;;;;;;;0.80;0.70;;;13.70;93.80;;;14.40;100.00;-21073.28;5132614;27;20446;-73
2021/05/21 03:02:24;;;;;;;0.80;0.70;;;13.70;93.50;;;14.28;100.00;-21069.97;5134642;27;20430;-75
2021/05/21 03:04:53;;;;;;;0.70;0.70;;;13.70;93.70;;;14.25;100.00;-21069.16;5148897;27;20453;-73
2021/05/21 03:07:22;;;;;;;0.70;0.70;;;13.60;95.00;;;14.21;100.00;-21068.03;5134723;27;20431;-74
2021/05/21 03:09:49;;;;;;;0.80;0.70;;;13.60;94.70;;;14.19;100.00;-21067.50;5132930;27;20440;-72
2021/05/21 03:12:18;;;;;;;0.80;0.70;;;13.60;94.60;;;14.09;100.00;-21064.88;5132337;27;20448;-75
2021/05/21 03:14:45;;;;;;;0.77;0.70;;;13.50;94.70;;;14.04;100.00;-21063.34;5134458;27;20455;-73
2021/05/21 03:17:13;;;;;;;0.70;0.70;;;13.50;95.20;;;13.96;100.00;-21061.44;5132709;28;20436;-72
2021/05/21 03:19:41;;;;;;;0.80;0.70;;;13.50;95.40;;;13.87;100.00;-21058.81;5133625;27;20440;-73
2021/05/21 03:22:09;;;;;;;0.80;0.80;;;13.40;95.60;;;13.78;100.00;-21056.47;5132668;28;20932;-74
2021/05/21 03:24:36;;;;;;;0.70;0.60;;;13.30;96.60;;;13.74;100.00;-21055.38;5133215;28;20440;-73
2021/05/21 03:27:05;;;;;;;0.80;0.70;;;13.30;96.40;;;13.71;100.00;-21054.69;5132950;28;20435;-73
2021/05/21 03:29:32;;;;;;;0.70;0.60;;;13.20;97.60;;;13.61;100.00;-21051.78;5126499;28;20464;-73
2021/05/21 03:32:01;;;;;;;0.80;0.70;;;13.10;98.20;;;13.67;100.00;-21053.44;5126343;28;21016;-73
2021/05/21 03:34:28;;;;;;;0.80;0.70;;;13.10;98.70;;;13.57;100.00;-21050.81;5128215;28;21022;-73
2021/05/21 03:36:56;;;;;;;0.73;0.63;;;13.10;99.50;;;13.49;100.00;-21048.75;5115484;28;20498;-73
2021/05/21 03:39:25;;;;;;;0.77;0.70;;;13.00;99.90;;;13.46;100.00;-21047.78;5133347;27;20511;-73
2021/05/21 03:41:53;;;;;;;0.70;0.60;;;13.00;99.90;;;13.41;100.00;-21046.53;5133735;28;20447;-74
2021/05/21 03:44:21;;;;;;;0.70;0.60;;;12.90;99.90;;;13.27;100.00;-21042.69;5113935;28;20437;-73
2021/05/21 03:46:48;;;;;;;0.80;0.70;;;12.80;99.90;;;13.22;100.00;-21041.31;5128164;28;20446;-73
2021/05/21 03:49:16;;;;;;;0.80;0.80;;;12.80;99.90;;;13.10;100.00;-21038.13;5116422;28;20512;-73
2021/05/21 03:51:44;;;;;;;0.73;0.63;;;12.70;99.90;;;13.01;100.00;-21035.78;5132393;28;20483;-74
2021/05/21 03:54:12;;;;;;;0.70;0.60;;;12.60;99.90;;;12.94;100.00;-21033.84;5133606;28;20528;-74
2021/05/21 03:56:40;;;;;;;0.70;0.60;;;12.50;99.90;;;12.86;100.00;-21031.66;5131442;27;20490;-73
2021/05/21 03:59:08;;;;;;;0.80;0.70;;;12.40;99.90;;;12.82;100.00;-21030.69;5132712;28;20428;-74
2021/05/21 04:01:37;;;;;;;0.70;0.67;;;12.40;99.90;;;12.85;100.00;-21031.22;5132573;28;20532;-74
2021/05/21 04:04:05;;;;;;;0.70;0.60;;;12.50;99.90;;;12.97;100.00;-21034.53;5131059;27;20459;-73
2021/05/21 04:06:33;;;;;;;0.70;0.63;;;12.50;99.90;;;12.96;100.00;-21034.41;5117362;28;20452;-73
2021/05/21 04:09:06;;;;;;;0.80;0.70;;;12.60;99.90;;;12.96;100.00;-21034.41;5126300;27;20457;-73
2021/05/21 04:11:34;;;;;;;0.73;0.67;;;12.50;99.90;;;12.87;100.00;-21031.94;5125248;27;20527;-74
2021/05/21 04:14:03;;;;;;;0.70;0.60;;;12.50;99.90;;;12.89;100.00;-21032.47;5117115;28;20455;-73
2021/05/21 04:16:32;;;;;;;0.70;0.60;;;12.40;99.90;;;12.83;100.00;-21030.81;5132513;27;20980;-73
2021/05/21 04:19:00;;;;;;;0.70;0.60;;;12.40;99.90;;;12.87;100.00;-21031.78;5126073;27;20448;-73
2021/05/21 04:21:32;;;;;;;0.80;0.73;;;12.40;99.90;;;12.86;100.00;-21031.66;5132369;27;20440;-73
2021/05/21 04:24:00;;;;;;;0.70;0.60;;;12.40;99.90;;;12.90;100.00;-21032.63;5116742;28;20441;-73
2021/05/21 04:26:27;;;;;;;0.70;0.63;;;12.40;99.90;;;12.88;100.00;-21032.19;5126113;27;20611;-73
2021/05/21 04:28:55;;;;;;;0.70;0.60;;;12.40;99.90;;;12.92;100.00;-21033.16;5137037;27;20460;-73
2021/05/21 04:31:24;;;;;;;0.70;0.70;;;12.40;99.90;;;12.95;100.00;-21034.13;5137205;27;20479;-73
2021/05/21 04:33:51;;;;;;;0.70;0.60;;;12.40;99.90;;;12.94;100.00;-21033.84;5137150;27;20491;-73
2021/05/21 04:36:20;;;;;;;0.80;0.63;;;12.40;99.90;;;12.96;100.00;-21034.28;5131238;27;20841;-73
2021/05/21 04:38:48;;;;;;;0.70;0.60;;;12.40;99.90;;;12.90;100.00;-21032.75;5127640;27;20504;-74
2021/05/21 04:41:25;;;;;;;0.70;0.60;;;12.30;99.90;;;12.88;100.00;-21032.19;5137296;27;20446;-73
2021/05/21 04:43:54;;;;;;;0.80;0.80;;;12.40;99.90;;;13.00;100.00;-21035.50;5125694;27;20447;-73
2021/05/21 04:46:21;;;;;;;0.80;0.80;;;12.50;99.90;;;12.98;100.00;-21034.97;5116337;28;20815;-72
2021/05/21 04:48:50;;;;;;;0.80;0.80;;;12.40;99.90;;;13.05;100.00;-21036.88;5124213;27;20447;-72
2021/05/21 04:51:17;;;;;;;0.80;0.70;;;12.40;99.90;;;13.01;100.00;-21035.78;5134070;27;20828;-73
2021/05/21 04:53:45;;;;;;;0.80;0.70;;;12.50;99.90;;;13.08;100.00;-21037.59;5118353;27;20471;-73
2021/05/21 04:56:13;;;;;;;0.80;0.70;;;12.50;99.90;;;13.15;100.00;-21039.38;5137145;27;20459;-72
2021/05/21 04:58:40;;;;;;;0.77;0.60;;;12.70;99.90;;;13.35;100.00;-21044.75;5135630;27;20417;-73
2021/05/21 05:01:08;;;;;;;0.80;0.70;;;12.80;99.90;;;13.63;100.00;-21052.34;5125850;27;20549;-72
2021/05/21 05:03:35;;;;;;;0.80;0.70;;;13.10;99.90;;;13.85;100.00;-21058.41;5116036;28;20447;-73
2021/05/21 05:06:04;;;;;;;0.70;0.63;;;13.20;99.90;;;14.05;100.00;-21063.63;5114374;28;20424;-72
2021/05/21 05:08:32;;;;;;;0.80;0.70;;;13.30;99.90;;;14.12;100.00;-21065.56;5130957;27;20478;-73
2021/05/21 05:10:59;;;;;;;0.70;0.70;;;13.40;99.90;;;14.03;100.00;-21063.22;5124978;27;20448;-73
2021/05/21 05:13:28;;;;;;;0.80;0.70;;;13.40;99.90;;;14.08;100.00;-21064.47;5134799;27;20475;-73
2021/05/21 05:15:56;;;;;;;0.80;0.70;;;13.40;99.90;;;14.10;100.00;-21065.16;5134780;27;20529;-73
2021/05/21 05:18:27;;;;;;;0.80;0.73;;;13.40;99.90;;;14.16;100.00;-21066.66;5136370;27;20496;-73
2021/05/21 05:20:57;;;;;;;0.70;0.70;;;13.40;99.90;;;14.22;100.00;-21068.44;5137182;27;20416;-74
2021/05/21 05:23:25;;;;;;;0.70;0.60;;;13.40;99.90;;;14.44;100.00;-21074.22;5133066;27;20438;-73
2021/05/21 05:25:53;;;;;;;0.70;0.60;;;13.60;99.90;;;14.67;100.00;-21080.44;5128495;27;20445;-74
2021/05/21 05:28:20;;;;;;;0.80;0.70;;;13.80;99.90;;;14.65;100.00;-21080.00;5121380;27;20459;-73
2021/05/21 05:30:48;;;;;;;0.70;0.60;;;13.90;99.90;;;14.59;100.00;-21078.22;5119892;27;20444;-73
2021/05/21 05:33:17;;;;;;;0.70;0.60;;;13.90;99.90;;;14.70;100.00;-21081.41;5136377;27;20515;-73
2021/05/21 05:35:44;;;;;;;0.70;0.67;;;13.90;99.90;;;14.65;100.00;-21079.88;5136721;27;20449;-72
2021/05/21 05:38:11;;;;;;;0.70;0.60;;;13.90;99.90;;;14.77;100.00;-21083.06;5130139;27;20496;-74
2021/05/21 05:40:41;;;;;;;0.70;0.70;;;14.00;99.90;;;14.72;100.00;-21081.81;5117638;27;20997;-73
2021/05/21 05:43:10;;;;;;;0.70;0.70;;;14.00;99.90;;;14.85;100.00;-21085.25;5130599;27;20432;-72
2021/05/21 05:45:37;;;;;;;0.80;0.70;;;13.90;99.90;;;14.94;100.00;-21087.84;5134765;27;20436;-73
2021/05/21 05:48:05;;;;;;;0.70;0.60;;;13.90;99.90;;;14.95;100.00;-21088.00;5136300;27;20420;-72
2021/05/21 05:50:33;;;;;;;0.80;0.70;;;14.00;99.40;;;14.90;100.00;-21086.75;5120271;27;20453;-73
2021/05/21 05:53:01;;;;;;;0.70;0.70;;;14.10;99.90;;;14.84;100.00;-21084.97;5124690;27;20475;-73
2021/05/21 05:55:33;;;;;;;0.80;0.70;;;14.10;99.60;;;14.63;100.00;-21079.34;5115338;27;20454;-72
2021/05/21 05:58:01;;;;;;;0.70;0.70;;;14.10;98.80;;;14.82;100.00;-21084.56;5124338;27;20933;-72
2021/05/21 06:00:29;;;;;;;0.70;0.70;;;14.10;99.90;;;14.93;100.00;-21087.44;5133965;27;20445;-74
2021/05/21 06:03:03;;;;;;;0.80;0.70;;;14.10;99.90;;;14.89;100.00;-21086.50;5133843;27;20433;-73
2021/05/21 06:05:33;;;;;;;0.70;0.60;;;14.10;99.40;;;14.84;100.00;-21085.13;5130476;27;20922;-73
2021/05/21 06:08:02;;;;;;;0.80;0.70;;;14.20;98.40;;;14.85;100.00;-21085.38;5119577;27;20444;-73
2021/05/21 06:10:30;;;;;;;0.70;0.60;;;14.20;98.80;;;14.94;100.00;-21087.84;5133980;27;20828;-74
2021/05/21 06:13:03;;;;;;;0.80;0.70;;;14.20;98.30;;;15.03;100.00;-21090.06;5117090;27;20956;-73
2021/05/21 06:15:32;;;;;;;0.80;0.70;;;14.40;96.80;;;15.06;100.00;-21090.88;5133137;27;20455;-75
2021/05/21 06:18:00;;;;;;;0.70;0.60;;;14.30;96.60;;;15.22;100.00;-21095.28;5124039;27;20492;-74
2021/05/21 06:20:34;;;;;;;0.70;0.63;;;14.40;96.70;;;15.27;100.00;-21096.53;5115249;27;20469;-74
2021/05/21 06:23:03;;;;;;;0.70;0.70;;;14.60;95.30;;;15.18;100.00;-21094.19;5128574;27;20467;-73
2021/05/21 06:28:15;;;;;;;0.70;0.60;;;14.60;94.00;;;15.45;100.00;-21101.63;5131112;27;20820;-73
2021/05/21 06:30:43;;;;;;;0.70;0.60;;;14.60;94.10;;;15.41;100.00;-21100.38;5135435;27;20411;-73
2021/05/21 06:33:11;;;;;;;0.70;0.60;;;14.70;94.20;;;15.53;100.00;-21103.69;5134061;27;20893;-72
2021/05/21 06:35:38;;;;;;;0.70;0.67;;;14.70;93.60;;;15.64;100.00;-21106.56;5134311;27;20885;-74
2021/05/21 06:38:06;;;;;;;0.70;0.60;;;14.80;92.20;;;15.37;100.00;-21099.28;5130315;27;20453;-73
2021/05/21 06:40:33;;;;;;;0.70;0.60;;;14.70;93.30;;;15.12;100.00;-21092.69;5122699;27;20508;-72
2021/05/21 06:43:07;;;;;;;0.80;0.70;;;14.60;93.00;;;15.40;100.00;-21100.09;5129854;27;20449;-72
2021/05/21 06:45:37;;;;;;;0.80;0.70;;;14.60;93.60;;;15.34;100.00;-21098.59;5114310;28;20409;-73
2021/05/21 06:48:06;;;;;;;0.70;0.60;;;14.70;92.20;;;15.51;100.00;-21103.13;5129024;27;20448;-74
2021/05/21 06:50:35;;;;;;;0.70;0.70;;;14.80;92.30;;;15.62;100.00;-21106.00;5134685;27;20417;-74
2021/05/21 06:53:04;;;;;;;0.70;0.60;;;14.80;91.70;;;15.69;100.00;-21107.94;5133253;27;20464;-72
2021/05/21 06:55:32;;;;;;;0.70;0.60;;;14.90;92.40;;;15.77;100.00;-21110.13;5132434;27;20491;-72
2021/05/21 06:58:00;;;;;;;0.70;0.60;;;15.00;92.50;;;15.70;100.00;-21108.22;5133423;27;20433;-72
2021/05/21 07:00:27;;;;;;;0.80;0.70;;;15.10;90.70;;;15.74;100.00;-21109.31;5134600;27;20482;-74
2021/05/21 07:02:56;;;;;;;0.70;0.60;;;15.10;90.10;;;16.08;100.00;-21118.53;5116145;27;20428;-73
2021/05/21 07:05:24;;;;;;;0.70;0.70;;;15.00;86.00;;;15.70;100.00;-21108.34;5116342;27;20449;-73
2021/05/21 07:07:51;;;;;;;0.70;0.70;;;14.90;84.10;;;15.76;100.00;-21109.88;5130931;27;20492;-72
2021/05/21 07:10:19;;;;;;;0.70;0.60;;;14.90;84.50;;;15.38;100.00;-21099.69;5132997;27;20960;-71
2021/05/21 07:12:48;;;;;;;0.80;0.67;;;14.90;81.70;;;15.56;100.00;-21104.38;5126844;27;20983;-72
2021/05/21 07:15:15;;;;;;;0.70;0.60;;;14.90;82.10;;;15.55;100.00;-21104.09;5112932;28;20819;-72
2021/05/21 07:17:43;;;;;;;0.70;0.60;;;14.80;82.40;;;15.83;100.00;-21111.66;5096180;28;20423;-74
2021/05/21 07:20:14;;;;;;;0.70;0.60;;;14.80;81.40;;;15.66;100.00;-21107.25;5115700;28;20402;-73
2021/05/21 07:22:42;;;;;;;0.70;0.60;;;15.00;80.30;;;15.62;100.00;-21106.16;5112784;28;20460;-73
2021/05/21 07:25:11;;;;;;;0.70;0.60;;;15.00;80.60;;;15.58;100.00;-21104.91;5132851;28;20806;-73
2021/05/21 07:27:39;;;;;;;0.70;0.60;;;14.90;79.70;;;15.67;100.00;-21107.53;5134449;28;20522;-73
2021/05/21 07:30:08;;;;;;;0.80;0.70;;;14.90;81.70;;;15.93;100.00;-21114.53;5131875;27;20435;-73
2021/05/21 07:32:35;;;;;;;0.80;0.70;;;14.80;80.50;;;15.88;100.00;-21113.16;5134126;27;20435;-71
2021/05/21 07:35:05;;;;;;;0.70;0.60;;;14.80;81.30;;;15.81;100.00;-21111.09;5133567;28;20445;-73
2021/05/21 07:37:34;;;;;;;0.80;0.77;;;14.90;81.10;;;15.57;100.00;-21104.78;5130345;27;20439;-74
2021/05/21 07:40:03;;;;;;;0.70;0.60;;;14.70;80.50;;;15.58;100.00;-21104.91;5100375;27;20422;-75
2021/05/21 07:42:53;;;;;;;0.70;0.60;;;14.50;82.70;;;15.30;100.00;-21097.50;5138963;27;20400;-74
2021/05/21 07:45:22;;;;;;;0.70;0.60;;;14.60;80.40;;;15.36;100.00;-21099.00;5138090;27;20443;-74
2021/05/21 07:47:51;;;;;;;0.70;0.60;;;14.70;78.70;;;15.66;100.00;-21107.25;5137586;27;20408;-73
2021/05/21 07:50:19;;;;;;;0.70;0.60;;;14.80;76.80;;;15.66;100.00;-21107.13;5137020;27;20443;-72
2021/05/21 07:52:48;;;;;;;0.70;0.60;;;15.10;73.90;;;16.32;100.00;-21124.97;5137174;27;20444;-74
2021/05/21 07:55:16;;;;;;;0.70;0.60;;;15.50;73.70;;;16.36;100.00;-21125.94;5137886;27;20424;-74
2021/05/21 07:57:43;;;;;;;0.80;0.80;;;15.70;70.10;;;16.69;100.00;-21134.72;5119083;27;20966;-74
2021/05/21 08:00:13;;;;;;;0.70;0.60;;;15.80;69.40;;;16.98;100.00;-21142.56;5135504;27;20818;-73
2021/05/21 08:02:42;;;;;;;0.70;0.60;;;15.80;70.30;;;17.22;100.00;-21149.13;5134700;27;20441;-73
2021/05/21 08:05:11;;;;;;;0.80;0.70;;;16.00;68.40;;;17.19;100.00;-21148.31;5118804;27;20490;-73
2021/05/21 08:07:43;;;;;;;0.70;0.60;;;16.10;68.50;;;17.21;100.00;-21148.84;5125236;27;20473;-74
2021/05/21 08:10:13;;;;;;;0.70;0.60;;;16.10;69.50;;;16.92;100.00;-21140.91;5120815;27;20482;-72
2021/05/21 08:12:42;;;;;;;0.70;0.60;;;15.80;66.90;;;16.47;100.00;-21128.81;5120875;27;20916;-78
2021/05/21 08:15:12;;;;;;;0.70;0.60;;;15.60;68.50;;;16.67;100.00;-21134.31;5136573;27;20450;-73
2021/05/21 08:17:39;;;;;;;0.80;0.80;;;15.50;67.70;;;16.38;100.00;-21126.63;5132051;27;20814;-72
2021/05/21 08:20:13;;;;;;;0.70;0.70;;;15.30;69.60;;;16.23;100.00;-21122.50;5134967;27;20778;-73
2021/05/21 08:22:42;;;;;;;0.70;0.70;;;14.90;68.60;;;15.58;100.00;-21104.91;5131656;27;20482;-74
2021/05/21 08:25:12;;;;;;;0.70;0.60;;;14.60;66.60;;;15.26;100.00;-21096.38;5130037;27;20951;-75
2021/05/21 08:27:40;;;;;;;0.80;0.80;;;14.40;64.90;;;16.06;100.00;-21117.97;5124622;27;20468;-73
2021/05/21 08:30:09;;;;;;;0.80;0.70;;;15.00;61.10;;;16.25;100.00;-21123.06;5129361;27;20432;-75
2021/05/21 08:32:36;;;;;;;0.70;0.60;;;15.40;60.90;;;17.31;100.00;-21151.59;5124900;27;20537;-72
2021/05/21 08:35:05;;;;;;;0.70;0.60;;;16.20;56.00;;;17.84;100.00;-21165.72;5130804;27;20753;-73
2021/05/21 08:37:33;;;;;;;0.80;0.70;;;16.60;53.20;;;17.36;100.00;-21152.97;5117353;27;20452;-76
2021/05/21 08:40:03;;;;;;;0.70;0.60;;;16.60;49.70;;;17.77;100.00;-21163.94;5129173;27;20499;-75
2021/05/21 08:42:37;;;;;;;0.70;0.60;;;16.10;50.10;;;17.03;100.00;-21144.06;5132281;27;20442;-77
2021/05/21 08:45:09;;;;;;;0.70;0.60;;;16.00;49.40;;;16.66;100.00;-21134.03;5121217;27;20447;-75
2021/05/21 08:47:37;;;;;;;0.70;0.63;;;15.60;48.80;;;16.65;100.00;-21133.75;5133130;27;20429;-74
2021/05/21 08:50:09;;;;;;;0.70;0.70;;;15.70;50.90;;;16.71;100.00;-21135.41;5118775;27;20477;-75
2021/05/21 08:52:38;;;;;;;0.70;0.70;;;15.60;51.70;;;17.31;100.00;-21151.59;5122729;27;20521;-74
2021/05/21 08:55:06;;;;;;;0.80;0.67;;;16.00;51.80;;;18.80;100.00;-21191.63;5129542;27;20506;-74
2021/05/21 08:57:35;;;;;;;0.80;0.60;;;17.00;50.90;;;18.94;100.00;-21195.16;5125725;27;20453;-75
2021/05/21 09:00:06;;;;;;;0.73;0.60;;;17.90;46.10;;;18.69;100.00;-21188.59;5132309;27;20950;-76
2021/05/21 09:02:35;;;;;;;0.70;0.60;;;17.90;41.70;;;17.62;100.00;-21159.81;5125362;27;20440;-74
2021/05/21 09:05:05;;;;;;;0.70;0.60;;;16.90;40.00;;;16.98;100.00;-21142.56;5130822;27;22050;-73
2021/05/21 09:07:38;;;;;;;0.80;0.70;;;16.00;41.80;;;16.84;100.00;-21138.84;5127017;27;20432;-73
2021/05/21 09:10:09;;;;;;;0.70;0.70;;;15.90;42.60;;;16.46;100.00;-21128.69;5125721;27;20526;-74
2021/05/21 09:12:40;;;;;;;0.70;0.60;;;15.70;44.30;;;17.37;100.00;-21153.25;5139513;27;20885;-74
2021/05/21 09:15:14;;;;;;;0.80;0.70;;;16.20;43.00;;;18.81;100.00;-21191.88;5121977;27;20802;-74
2021/05/21 09:17:57;;;;;;;0.80;0.70;;;16.80;40.70;;;18.05;100.00;-21171.34;5137194;27;20507;-75
2021/05/21 09:20:28;;;;;;;0.70;0.60;;;16.90;37.10;;;19.47;100.00;-21209.41;5123340;27;20440;-72
2021/05/21 09:23:07;;;;;;;0.80;0.63;;;17.70;35.30;;;19.73;100.00;-21216.38;5115098;27;20518;-72
2021/05/21 09:25:42;;;;;;;0.80;0.60;;;18.10;36.10;;;20.52;100.00;-21237.41;5118593;27;20467;-75
2021/05/21 09:28:35;;;;;;;0.70;0.60;;;18.50;34.50;;;20.41;100.00;-21234.53;5116355;27;20415;-72
2021/05/21 09:31:10;;;;;;;0.77;0.67;;;18.40;33.20;;;19.33;100.00;-21205.72;5115977;27;20418;-74
2021/05/21 09:33:42;;;;;;;0.70;0.60;;;17.80;30.60;;;20.02;100.00;-21224.16;5115255;27;20447;-70
2021/05/21 09:36:10;;;;;;;1.40;1.30;;;17.90;30.00;;;19.88;100.00;-21220.34;5134313;27;20791;-77
2021/05/21 09:38:46;;;;;;;0.70;0.60;;;18.40;29.10;;;19.31;100.00;-21205.16;5136329;27;20539;-76
2021/05/21 09:41:17;;;;;;;0.70;0.60;;;18.30;30.00;;;19.86;100.00;-21219.78;5128833;27;20968;-78
2021/05/21 09:43:51;;;;;;;0.70;0.60;;;18.00;33.90;;;20.99;100.00;-21250.09;5134965;27;20760;-74
2021/05/21 09:46:18;;;;;;;0.70;0.60;;;18.30;29.00;;;20.07;100.00;-21225.38;5137957;27;20412;-73
2021/05/21 09:48:48;;;;;;;0.70;0.60;;;17.70;28.80;;;19.71;100.00;-21215.97;5135734;27;20439;-75
2021/05/21 09:51:16;;;;;;;0.70;0.60;;;17.50;30.40;;;20.55;100.00;-21238.38;5138252;27;20954;-75
2021/05/21 09:53:46;;;;;;;0.70;0.60;;;18.00;33.20;;;20.40;100.00;-21234.41;5135590;27;20418;-76
2021/05/21 09:56:20;;;;;;;0.70;0.60;;;17.80;31.20;;;19.69;100.00;-21215.28;5116238;27;20452;-75
2021/05/21 09:58:52;;;;;;;0.70;0.60;;;17.40;31.20;;;19.21;100.00;-21202.41;5136316;27;20854;-74
2021/05/21 10:01:22;;;;;;;0.70;0.60;;;17.30;33.60;;;19.31;100.00;-21205.28;5154729;27;20516;-77
2021/05/21 10:03:55;;;;;;;0.70;0.67;;;17.40;29.90;;;18.76;100.00;-21190.53;5137290;27;20411;-75
2021/05/21 10:06:26;;;;;;;0.70;0.60;;;17.40;29.60;;;18.76;100.00;-21190.53;5138161;27;20413;-76
2021/05/21 10:08:56;;;;;;;0.80;0.70;;;17.40;31.10;;;19.67;100.00;-21214.72;5132154;27;20936;-76
2021/05/21 10:11:24;;;;;;;0.70;0.60;;;17.60;30.40;;;19.53;100.00;-21211.03;5131876;27;20472;-74
2021/05/21 10:13:52;;;;;;;0.70;0.60;;;17.40;31.40;;;19.31;100.00;-21205.28;5134341;27;20401;-73
2021/05/21 10:16:22;;;;;;;0.70;0.60;;;17.40;29.70;;;18.51;100.00;-21183.81;5116198;28;20497;-74